NH80 weather

Shanklin Heliport
Wilton, New Hampshire, United States

Public forecast

Using degrees Fahrenheit for public forecast. Weather courtesy of forecast.io.

METAR (pilot weather report)

Closest report is Boire Field, 10.3 nm (19.1 km) ESE. Retrieved 2019/09/23 18:56 UTC (9 minutes ago):

KASH 231856Z COR 25009G15KT 200V290 10SM SCT060 32/17 A2973 RMK AO2 SLP069 T03220167

TAF (pilot weather forecast)

Closest forecast is Manchester-Boston Regional Airport, 14.9 nm (27.6 km) ENE. Retrieved 2019/09/23 18:22 UTC (43 minutes ago):

TAF KMHT 231720Z 2318/2418 22012G18KT P6SM SCT200 FM232100 22007KT P6SM OVC070 FM240200 23006KT P6SM VCSH BKN040 FM240600 22003KT P6SM SCT120 FM241500 29008KT P6SM BKN050